Home > Products > Valid Products > MTR

000
SAUS46 KMFR 231557
MTRSXT
METAR KSXT 231556Z AUTO 18012G18KT 10SM OVC036 13/06 A2998 RMK AO2
SLP119 T01330061





000
SAUS46 KMFR 231457
MTRSXT
METAR KSXT 231456Z AUTO 18011KT 10SM OVC039 13/04 A2997 RMK AO2
SLP111 T01330039 53004





000
SAUS46 KMFR 231357
MTRSXT
METAR KSXT 231356Z AUTO 18012KT 10SM BKN045 BKN055 13/03 A2996 RMK
AO2 SLP108 T01280028





000
SAUS46 KMFR 231257
MTRSXT
METAR KSXT 231256Z AUTO 19013KT 10SM CLR 13/03 A2995 RMK AO2 SLP104
T01280028





000
SAUS46 KMFR 231200
MTRMHS
METAR KMHS 231156Z AUTO 00000KT 8SM CLR 17/11 A3003 RMK AO2 SLP155
T01670111 10194 20161 53000





000
SAUS46 KMFR 231157
MTRSXT
METAR KSXT 231156Z AUTO 18011KT 10SM CLR 13/03 A2995 RMK AO2 SLP103
T01280028 10156 20128 56012





000
SAUS46 KMFR 231057
MTRSXT
METAR KSXT 231056Z AUTO 19010KT 10SM CLR 13/04 A2996 RMK AO2 SLP106
T01280039





000
SAUS46 KMFR 230957
MTRSXT
METAR KSXT 230956Z AUTO 16010KT 10SM CLR 13/03 A2997 RMK AO2 SLP104
T01330028





000
SAUS46 KMFR 230857
MTRSXT
METAR KSXT 230856Z AUTO 20010KT 10SM CLR 13/04 A2999 RMK AO2 SLP112
T01330039 56009





000
SAUS46 KMFR 230800
MTRMHS
METAR KMHS 230756Z AUTO VRB03KT 10SM CLR 18/10 A3004 RMK AO2 SLP156
T01830100 402830094





000
SAUS46 KMFR 230757
MTRSXT
METAR KSXT 230756Z AUTO 18011KT 10SM CLR 14/02 A2999 RMK AO2 SLP113
T01390017 402440139





000
SAUS46 KMFR 230657
MTRSXT
METAR KSXT 230656Z AUTO 19007KT 10SM CLR 14/M01 A3001 RMK AO2 SLP117
T01441006





000
SAUS46 KMFR 230557
MTRSXT
METAR KSXT 230556Z AUTO 21008KT 10SM CLR 15/M02 A3002 RMK AO2 SLP122
T01501022 10211 20144 58001





000
SAUS46 KMFR 230457
MTRSXT
METAR KSXT 230456Z AUTO 17007KT 10SM CLR 14/M02 A3003 RMK AO2 SLP130
T01441017





000
SAUS46 KMFR 230357
MTRSXT
METAR KSXT 230356Z AUTO 20008KT 10SM CLR 16/01 A3003 RMK AO2 SLP132
T01560011





000
SAUS46 KMFR 230257
MTRSXT
METAR KSXT 230256Z AUTO 24005KT 10SM CLR 17/01 A3003 RMK AO2 SLP130
T01720011 55001





000
SAUS46 KMFR 230157
MTRSXT
METAR KSXT 230156Z AUTO 22007KT 10SM FEW120 18/00 A3002 RMK AO2
SLP127 T01830000





000
SAUS46 KMFR 230057
MTRSXT
METAR KSXT 230056Z AUTO 20004KT 10SM CLR 19/06 A3002 RMK AO2 SLP124
T01940061





000
SAUS46 KMFR 222357
MTRSXT
METAR KSXT 222356Z AUTO VRB03KT 10SM CLR 21/08 A3003 RMK AO2 SLP124
T02060078 10244 20189 56009





000
SAUS46 KMFR 222257
MTRSXT
METAR KSXT 222256Z AUTO 00000KT 10SM CLR 21/08 A3003 RMK AO2 SLP125
T02060078





000
SAUS46 KMFR 222157
MTRSXT
METAR KSXT 222156Z AUTO 22005KT 10SM CLR 22/07 A3006 RMK AO2 SLP128
T02220067





000
SAUS46 KMFR 222057
MTRSXT
METAR KSXT 222056Z AUTO VRB04KT 10SM CLR 22/06 A3006 RMK AO2 SLP130
T02170056 56006





000
SAUS46 KMFR 221957
MTRSXT
METAR KSXT 221956Z AUTO 20005KT 10SM CLR 22/06 A3007 RMK AO2 SLP133
T02170056





000
SAUS46 KMFR 221857
MTRSXT
METAR KSXT 221856Z AUTO 17007KT 10SM CLR 22/06 A3007 RMK AO2 SLP133
T02220056





000
SAUS46 KMFR 221757
MTRSXT
METAR KSXT 221756Z AUTO 15007KT 090V190 10SM CLR 20/06 A3008 RMK AO2
SLP140 T02000056 10200 20139 51003





000
SAUS46 KMFR 221657
MTRSXT
METAR KSXT 221656Z AUTO 18007KT 10SM CLR 17/04 A3008 RMK AO2 SLP144
T01720039





000
SAUS46 KMFR 221557
MTRSXT
METAR KSXT 221556Z AUTO 18008KT 10SM CLR 15/05 A3008 RMK AO2 SLP146
T01500050





000
SAUS46 KMFR 221457
MTRSXT
METAR KSXT 221456Z AUTO 18006KT 10SM CLR 15/02 A3007 RMK AO2 SLP145
T01500022 53005





000
SAUS46 KMFR 221357
MTRSXT
METAR KSXT 221356Z AUTO 20008KT 10SM CLR 14/03 A3007 RMK AO2 SLP139
T01390028





000
SAUS46 KMFR 221257
MTRSXT
METAR KSXT 221256Z AUTO 18004KT 10SM CLR 15/02 A3006 RMK AO2 SLP128
T01500022





000
SAUS46 KMFR 221157
MTRSXT
METAR KSXT 221156Z AUTO 19003KT 10SM CLR 16/03 A3006 RMK AO2 SLP127
T01560028 10178 20156 55000





000
SAUS46 KMFR 221057
MTRSXT
METAR KSXT 221056Z AUTO 19004KT 10SM CLR 16/02 A3005 RMK AO2 SLP121
T01610022





000
SAUS46 KMFR 220957
MTRSXT
METAR KSXT 220956Z AUTO 21004KT 10SM CLR 16/03 A3006 RMK AO2 SLP122
T01610033





000
SAUS46 KMFR 220858
MTRSXT
METAR KSXT 220856Z AUTO 20005KT 10SM CLR 17/02 A3006 RMK AO2 SLP123
T01720022 58004





000
SAUS46 KMFR 220800
MTRMHS
METAR KMHS 220756Z AUTO 00000KT 10SM CLR 15/11 A3009 RMK AO2 SLP177
T01500111 402940106





000
SAUS46 KMFR 220757
MTRSXT
METAR KSXT 220756Z AUTO VRB03KT 10SM CLR 17/04 A3007 RMK AO2 SLP126
T01720039 402670167





000
SAUS46 KMFR 220657
MTRSXT
METAR KSXT 220656Z AUTO 12003KT 10SM FEW120 17/04 A3007 RMK AO2
SLP129 T01720039





000
SAUS46 KMFR 220600
MTRMHS
METAR KMHS 220556Z AUTO 00000KT 10SM CLR 19/11 A3008 RMK AO2 SLP173
T01890111 10278 20189 51013





000
SAUS46 KMFR 220557
MTRSXT
METAR KSXT 220556Z AUTO 00000KT 10SM BKN120 18/04 A3007 RMK AO2
SLP131 T01780039 10256 20172 51004





000
SAUS46 KMFR 220457
MTRSXT
METAR KSXT 220456Z AUTO 28004KT 10SM CLR 18/04 A3007 RMK AO2 SLP136
T01780039





000
SAUS46 KMFR 220357
MTRSXT
METAR KSXT 220356Z AUTO 24006KT 10SM CLR 18/04 A3008 RMK AO2 SLP137
T01830039





000
SAUS46 KMFR 220257
MTRSXT
METAR KSXT 220256Z AUTO 20008KT 10SM CLR 18/03 A3006 RMK AO2 SLP132
T01830028 53010





000
SAUS46 KMFR 220157
MTRSXT
METAR KSXT 220156Z AUTO 24008KT 10SM CLR 21/02 A3004 RMK AO2 SLP125
T02060017





000
SAUS46 KMFR 220057
MTRSXT
METAR KSXT 220056Z AUTO VRB04KT 10SM CLR 23/02 A3003 RMK AO2 SLP116
T02330022





000
SAUS46 KMFR 212357
MTRSXT
METAR KSXT 212356Z AUTO 00000KT 10SM CLR 24/06 A3002 RMK AO2 SLP111
T02440056 10267 20211 56003





000
SAUS46 KMFR 212257
MTRSXT
METAR KSXT 212256Z AUTO 00000KT 10SM CLR 26/07 A3003 RMK AO2 SLP106
T02610072





000
SAUS46 KMFR 212157
MTRSXT
METAR KSXT 212156Z AUTO VRB03KT 10SM CLR 26/07 A3003 RMK AO2 SLP107
T02610072





000
SAUS46 KMFR 212057
MTRSXT
METAR KSXT 212056Z AUTO 00000KT 10SM CLR 25/06 A3003 RMK AO2 SLP109
T02500056 58006





000
SAUS46 KMFR 211957
MTRSXT
METAR KSXT 211956Z AUTO 00000KT 10SM CLR 24/04 A3004 RMK AO2 SLP115
T02440044





000
SAUS46 KMFR 211857
MTRSXT
METAR KSXT 211856Z AUTO VRB04KT 10SM CLR 23/02 A3005 RMK AO2 SLP116
T02330017





000
SAUS46 KMFR 211757
MTRSXT
METAR KSXT 211756Z AUTO 15009KT 10SM CLR 22/07 A3005 RMK AO2 SLP121
T02170072 10222 20167 51008





000
SAUS46 KMFR 211700
MTRMHS
METAR KMHS 211656Z AUTO 00000KT 10SM FEW031 FEW080 BKN110 19/12
A3004 RMK AO2 SLP163 T01890117





000
SAUS46 KMFR 211657
MTRSXT
METAR KSXT 211656Z AUTO 17008KT 10SM CLR 20/08 A3005 RMK AO2 SLP119
T02000083





000
SAUS46 KMFR 211557
MTRSXT
METAR KSXT 211556Z AUTO 17005KT 10SM CLR 19/09 A3004 RMK AO2 SLP118
T01890089





000
SAUS46 KMFR 211457
MTRSXT
METAR KSXT 211456Z AUTO 20007KT 10SM CLR 18/07 A3003 RMK AO2 SLP114
T01780072 53006





000
SAUS46 KMFR 211357
MTRSXT
METAR KSXT 211356Z AUTO 20007KT 10SM CLR 17/08 A3002 RMK AO2 SLP107
T01720078





000
SAUS46 KMFR 211300
MTRMHS
METAR KMHS 211256Z AUTO 00000KT 10SM CLR 12/08 A3002 RMK AO2 SLP154
T01170083





000
SAUS46 KMFR 211257
MTRSXT
METAR KSXT 211256Z AUTO 19009KT 10SM CLR 17/08 A3001 RMK AO2 SLP103
T01720078





000
SAUS46 KMFR 211157
MTRSXT
METAR KSXT 211156Z AUTO 18007KT 10SM CLR 18/08 A3001 RMK AO2 SLP099
T01780078 10211 20178 56004





000
SAUS46 KMFR 211057
MTRSXT
METAR KSXT 211056Z AUTO 26005KT 10SM CLR 19/08 A3001 RMK AO2 SLP095
T01890083





000
SAUS46 KMFR 210957
MTRSXT
METAR KSXT 210956Z AUTO 26003KT 10SM CLR 19/10 A3001 RMK AO2 SLP096
T01940100





000
SAUS46 KMFR 210857
MTRSXT
METAR KSXT 210856Z AUTO 25005KT 10SM CLR 20/11 A3002 RMK AO2 SLP096
T02000106 50002





000
SAUS46 KMFR 210757
MTRSXT
METAR KSXT 210756Z AUTO 23004KT 10SM CLR 19/09 A3002 RMK AO2 SLP101
T01940094 403060167





000
SAUS46 KMFR 210657
MTRSXT
METAR KSXT 210656Z AUTO 30005KT 10SM CLR 21/11 A3001 RMK AO2 SLP098
T02060111





000
SAUS46 KMFR 210557
MTRSXT
METAR KSXT 210556Z AUTO 32007KT 10SM CLR 21/11 A3001 RMK AO2 SLP100
T02060106 10283 20206 51006





000
SAUS46 KMFR 210457
MTRSXT
METAR KSXT 210456Z AUTO 33006KT 10SM CLR 22/08 A3001 RMK AO2 SLP102
T02170083





000
SAUS46 KMFR 210400
MTRMHS
METAR KMHS 210356Z AUTO 00000KT 10SM CLR 21/11 A2997 RMK AO2 SLP138
T02060106





000
SAUS46 KMFR 210357
MTRSXT
METAR KSXT 210356Z AUTO 36007KT 10SM CLR 23/08 A3000 RMK AO2 SLP099
T02280083





000
SAUS46 KMFR 210257
MTRSXT
METAR KSXT 210256Z AUTO 34006KT 10SM CLR 23/08 A2999 RMK AO2 SLP101
T02280078 56005





000
SAUS46 KMFR 210157
MTRSXT
METAR KSXT 210156Z AUTO 33003KT 10SM CLR 26/06 A3000 RMK AO2 SLP102
T02560056





000
SAUS46 KMFR 210057
MTRSXT
METAR KSXT 210056Z AUTO 32004KT 10SM CLR 27/06 A3000 RMK AO2 SLP100
T02670056





000
SAUS46 KMFR 202357
MTRSXT
METAR KSXT 202356Z AUTO 33004KT 10SM CLR 28/04 A3001 RMK AO2 SLP100
T02780039 10306 20250 56008





000
SAUS46 KMFR 202257
MTRSXT
METAR KSXT 202256Z AUTO VRB03KT 10SM CLR 28/04 A3001 RMK AO2 SLP101
T02830044





000
SAUS46 KMFR 202157
MTRSXT
METAR KSXT 202156Z AUTO VRB03KT 10SM CLR 29/08 A3002 RMK AO2 SLP101
T02940078





000
SAUS46 KMFR 202100
MTRMHS
METAR KMHS 202056Z AUTO 27004KT 10SM CLR 32/08 A2998 RMK AO2 SLP135
T03220083 58023





000
SAUS46 KMFR 202057
MTRSXT
METAR KSXT 202056Z AUTO VRB04KT 10SM CLR 29/07 A3004 RMK AO2 SLP106
T02940072 58007





000
SAUS46 KMFR 201957
MTRSXT
METAR KSXT 201956Z AUTO 13006KT 10SM CLR 28/07 A3005 RMK AO2 SLP114
T02780072





000
SAUS46 KMFR 201857
MTRSXT
METAR KSXT 201856Z AUTO 12009KT 10SM CLR 27/07 A3005 RMK AO2 SLP122
T02670072





000
SAUS46 KMFR 201757
MTRSXT
METAR KSXT 201756Z AUTO 11011G19KT 10SM CLR 26/08 A3006 RMK AO2
SLP125 T02560078 10256 20167 53004





000
SAUS46 KMFR 201657
MTRSXT
METAR KSXT 201656Z AUTO 11012KT 10SM CLR 23/08 A3006 RMK AO2 SLP127
T02330078





    US Dept of Commerce
    National Oceanic and Atmospheric Administration
    National Weather Service
    1325 East West Highway
    Silver Spring, MD 20910
    Page Author: NWS Internet Services Team
Disclaimer
Information Quality
Credits
Glossary
Privacy Policy
Freedom of Information Act (FOIA)
About Us
Career Opportunities